Time;durP1;ratioP1;P1;durP2;ratioP2;P2;SDS_P1;SDS_P2;PMS_P1;PMS_P2;Temp;Humidity;BMP_temperature;BMP_pressure;BME280_temperature;BME280_humidity;BME280_pressure;Samples;Min_cycle;Max_cycle;Signal;HPM_P1;HPM_P2
2021/04/05 00:01:04;;;;;;;2.23;1.93;;;2.60;95.20;;;;;;5074563;28;20163;-72
2021/04/05 00:03:30;;;;;;;4.77;1.73;;;2.40;95.20;;;;;;5074519;28;20189;-72
2021/04/05 00:05:56;;;;;;;5.50;1.60;;;2.30;95.90;;;;;;5074407;28;20231;-74
2021/04/05 00:08:21;;;;;;;2.50;1.80;;;2.50;95.90;;;;;;5074522;28;20251;-73
2021/04/05 00:10:51;;;;;;;2.83;1.93;;;2.60;95.50;;;;;;5074179;28;20253;-73
2021/04/05 00:13:30;;;;;;;3.30;1.60;;;2.60;95.30;;;;;;5074111;28;20618;-73
2021/04/05 00:15:57;;;;;;;3.00;2.33;;;2.70;95.10;;;;;;5074671;28;20172;-73
2021/04/05 00:18:24;;;;;;;3.10;2.10;;;2.70;95.00;;;;;;5074128;28;20170;-73
2021/04/05 00:20:52;;;;;;;3.15;1.70;;;2.70;95.00;;;;;;5073830;28;20301;-72
2021/04/05 00:23:18;;;;;;;2.22;1.63;;;2.60;94.80;;;;;;5073951;28;20197;-73
2021/04/05 00:25:44;;;;;;;5.10;2.63;;;2.50;95.30;;;;;;5073975;28;20183;-72
2021/04/05 00:28:10;;;;;;;4.30;2.30;;;2.50;95.70;;;;;;5074074;28;20174;-72
2021/04/05 00:30:37;;;;;;;4.38;3.00;;;2.50;95.90;;;;;;5073745;28;20247;-73
2021/04/05 00:33:04;;;;;;;7.32;4.00;;;2.60;95.80;;;;;;5073887;28;20235;-74
2021/04/05 00:35:32;;;;;;;2.33;1.80;;;2.50;95.20;;;;;;5073469;28;20199;-73
2021/04/05 00:37:59;;;;;;;2.97;2.38;;;2.50;95.60;;;;;;5074003;28;20190;-72
2021/04/05 00:40:30;;;;;;;4.88;2.03;;;2.30;95.50;;;;;;5073543;28;20538;-74
2021/04/05 00:42:56;;;;;;;4.03;1.75;;;2.20;96.00;;;;;;5073899;28;20179;-73
2021/04/05 00:45:22;;;;;;;4.13;2.45;;;2.40;96.20;;;;;;5073669;28;20251;-74
2021/04/05 00:47:52;;;;;;;1.97;1.70;;;2.40;96.20;;;;;;5072516;28;20191;-74
2021/04/05 00:50:23;;;;;;;2.30;1.67;;;2.50;95.70;;;;;;5073598;28;20198;-72
2021/04/05 00:52:56;;;;;;;2.40;1.75;;;2.50;95.60;;;;;;5073627;28;20216;-73
2021/04/05 00:55:24;;;;;;;3.53;2.20;;;2.50;95.70;;;;;;5073475;28;20202;-73
2021/04/05 00:57:50;;;;;;;2.13;1.92;;;2.40;95.70;;;;;;5073493;28;20613;-73
2021/04/05 01:00:25;;;;;;;3.05;2.05;;;2.30;95.90;;;;;;5073334;28;20566;-73
2021/04/05 01:02:51;;;;;;;6.18;2.70;;;2.20;95.80;;;;;;5073632;28;20178;-73
2021/04/05 01:05:17;;;;;;;3.07;2.50;;;2.00;95.90;;;;;;5073551;28;20171;-74
2021/04/05 01:07:43;;;;;;;4.03;2.10;;;2.10;96.40;;;;;;5073545;28;20173;-73
2021/04/05 01:10:11;;;;;;;3.00;1.97;;;2.20;96.50;;;;;;5073217;28;20182;-74
2021/04/05 01:12:40;;;;;;;4.38;2.30;;;2.20;96.10;;;;;;5073294;28;20222;-74
2021/04/05 01:15:09;;;;;;;7.70;3.25;;;2.20;96.20;;;;;;5073244;28;20194;-72
2021/04/05 01:17:35;;;;;;;2.75;2.22;;;2.20;96.10;;;;;;5073611;28;20174;-73
2021/04/05 01:20:02;;;;;;;2.40;2.20;;;2.30;96.30;;;;;;5073174;28;20624;-73
2021/04/05 01:22:27;;;;;;;6.80;1.95;;;2.30;96.30;;;;;;5073048;28;20846;-73
2021/04/05 01:24:54;;;;;;;2.00;1.90;;;2.20;95.70;;;;;;5073643;28;20203;-72
2021/04/05 01:27:19;;;;;;;3.65;2.25;;;2.20;96.10;;;;;;5073425;28;20197;-73
2021/04/05 01:29:45;;;;;;;4.93;2.87;;;2.30;96.20;;;;;;5073104;28;20208;-74
2021/04/05 01:32:10;;;;;;;3.40;1.50;;;2.20;96.40;;;;;;5073157;28;20203;-73
2021/04/05 01:34:39;;;;;;;3.10;2.70;;;2.30;96.60;;;;;;5073250;28;20214;-73
2021/04/05 01:37:06;;;;;;;4.15;2.10;;;2.30;96.60;;;;;;5073029;28;20573;-74
2021/04/05 01:39:36;;;;;;;5.32;2.00;;;2.30;96.40;;;;;;5073112;28;20201;-74
2021/04/05 01:42:03;;;;;;;9.63;2.30;;;2.40;96.50;;;;;;5073146;28;20532;-73
2021/04/05 01:44:35;;;;;;;2.40;2.17;;;2.20;96.10;;;;;;5072979;28;20196;-72
2021/04/05 01:47:01;;;;;;;6.78;2.67;;;2.20;96.40;;;;;;5075869;28;20176;-73
2021/04/05 01:49:27;;;;;;;4.18;1.85;;;2.30;96.20;;;;;;5076813;28;20216;-73
2021/04/05 01:51:53;;;;;;;4.28;2.55;;;2.30;96.00;;;;;;5076896;28;20247;-74
2021/04/05 01:54:19;;;;;;;6.93;2.50;;;2.30;96.30;;;;;;5076835;28;20218;-74
2021/04/05 01:56:45;;;;;;;4.00;2.47;;;2.20;96.10;;;;;;5076924;28;20727;-74
2021/04/05 01:59:11;;;;;;;2.75;2.55;;;2.20;96.20;;;;;;5077172;28;20404;-74
2021/04/05 02:01:38;;;;;;;7.72;2.35;;;2.20;96.00;;;;;;5076939;28;20181;-73
2021/04/05 02:04:04;;;;;;;2.40;2.20;;;2.10;96.00;;;;;;5076798;28;20190;-74
2021/04/05 02:06:31;;;;;;;2.88;1.58;;;2.00;96.40;;;;;;5077115;28;20172;-73
2021/04/05 02:08:58;;;;;;;1.55;1.45;;;1.90;96.50;;;;;;5076793;28;20272;-74
2021/04/05 02:11:26;;;;;;;2.25;1.95;;;1.70;96.70;;;;;;5076493;28;20549;-73
2021/04/05 02:13:55;;;;;;;1.60;1.50;;;1.80;97.20;;;;;;5075229;28;20221;-73
2021/04/05 02:16:21;;;;;;;2.10;1.90;;;1.90;97.10;;;;;;5076414;28;20249;-73
2021/04/05 02:18:48;;;;;;;2.70;2.25;;;1.70;96.90;;;;;;5076687;28;20174;-74
2021/04/05 02:21:15;;;;;;;2.97;2.00;;;1.80;97.40;;;;;;5076089;28;20223;-72
2021/04/05 02:23:43;;;;;;;7.07;2.60;;;1.80;97.00;;;;;;5076410;28;20183;-73
2021/04/05 02:26:11;;;;;;;4.65;2.45;;;1.60;96.80;;;;;;5076291;28;20577;-73
2021/04/05 02:28:43;;;;;;;7.13;2.40;;;1.60;97.30;;;;;;5076505;28;20573;-73
2021/04/05 02:31:15;;;;;;;3.67;1.95;;;1.60;97.30;;;;;;5076336;28;20631;-72
2021/04/05 02:33:44;;;;;;;8.57;2.30;;;1.70;97.10;;;;;;5076095;28;20537;-74
2021/04/05 02:36:12;;;;;;;2.90;2.70;;;1.80;97.00;;;;;;5076187;28;20224;-73
2021/04/05 02:38:39;;;;;;;6.28;1.95;;;1.80;97.00;;;;;;5076095;28;20171;-73
2021/04/05 02:41:07;;;;;;;3.50;2.42;;;1.70;96.80;;;;;;5076203;28;20206;-73
2021/04/05 02:43:34;;;;;;;2.92;2.40;;;1.70;97.30;;;;;;5076008;28;20204;-73
2021/04/05 02:46:01;;;;;;;1.70;1.60;;;1.80;97.50;;;;;;5076139;28;20185;-72
2021/04/05 02:48:29;;;;;;;6.43;2.80;;;1.80;97.30;;;;;;5075903;28;20174;-73
2021/04/05 02:50:56;;;;;;;5.63;2.40;;;1.80;97.40;;;;;;5075724;28;20529;-72
2021/04/05 02:53:23;;;;;;;2.83;2.42;;;2.00;97.30;;;;;;5075734;28;20689;-73
2021/04/05 02:55:49;;;;;;;3.60;2.35;;;1.90;97.00;;;;;;5075795;28;20204;-74
2021/04/05 02:58:15;;;;;;;3.73;2.03;;;1.80;97.30;;;;;;5075404;28;20170;-74
2021/04/05 03:00:41;;;;;;;2.65;2.30;;;1.80;97.20;;;;;;5075457;28;20404;-73
2021/04/05 03:03:07;;;;;;;4.27;2.53;;;1.80;96.90;;;;;;5075641;28;20179;-72
2021/04/05 03:05:33;;;;;;;2.60;2.40;;;1.70;96.90;;;;;;5075744;28;20602;-73
2021/04/05 03:07:59;;;;;;;1.98;1.80;;;1.60;97.40;;;;;;5075651;28;20411;-74
2021/04/05 03:10:29;;;;;;;6.03;2.60;;;1.60;97.70;;;;;;5075330;28;20175;-72
2021/04/05 03:12:58;;;;;;;3.85;2.40;;;1.50;97.90;;;;;;5075236;28;20445;-73
2021/04/05 03:15:25;;;;;;;2.55;2.35;;;1.50;98.00;;;;;;5075236;28;20185;-73
2021/04/05 03:17:56;;;;;;;4.32;2.30;;;1.50;98.00;;;;;;5075761;28;20172;-74
2021/04/05 03:20:24;;;;;;;2.40;2.20;;;1.70;98.00;;;;;;5075395;28;20169;-73
2021/04/05 03:22:50;;;;;;;3.80;1.92;;;1.60;97.80;;;;;;5075267;28;20184;-73
2021/04/05 03:25:22;;;;;;;2.38;2.17;;;1.50;97.80;;;;;;5075181;28;20181;-73
2021/04/05 03:27:49;;;;;;;5.15;2.20;;;1.60;97.90;;;;;;5075296;28;20173;-73
2021/04/05 03:30:21;;;;;;;3.65;2.20;;;1.70;97.70;;;;;;5075021;28;20244;-74
2021/04/05 03:32:50;;;;;;;3.78;2.40;;;1.80;97.50;;;;;;5073866;28;20209;-72
2021/04/05 03:35:21;;;;;;;3.00;2.55;;;1.80;97.30;;;;;;5074967;28;20170;-74
2021/04/05 03:37:48;;;;;;;7.80;2.30;;;1.60;97.30;;;;;;5075038;28;20169;-74
2021/04/05 03:40:15;;;;;;;1.95;1.85;;;1.70;97.60;;;;;;5074834;28;20174;-74
2021/04/05 03:43:07;;;;;;;2.88;1.70;;;1.80;97.40;;;;;;5074917;28;20596;-73
2021/04/05 03:45:48;;;;;;;8.43;2.63;;;1.80;97.10;;;;;;5072310;28;20178;-73
2021/04/05 03:48:52;;;;;;;4.40;3.70;;;1.70;96.90;;;;;;5074836;28;20167;-74
2021/04/05 03:51:49;;;;;;;3.03;2.13;;;1.50;97.30;;;;;;5063512;28;20263;-73
2021/04/05 03:54:19;;;;;;;3.08;2.78;;;1.50;97.50;;;;;;5070248;28;20206;-72
2021/04/05 03:56:53;;;;;;;4.03;2.78;;;1.60;97.60;;;;;;5073947;28;20567;-72
2021/04/05 03:59:35;;;;;;;3.08;1.48;;;1.60;97.50;;;;;;5074527;28;20248;-74
2021/04/05 04:02:14;;;;;;;3.20;2.90;;;1.60;97.30;;;;;;5074115;28;20542;-73
2021/04/05 04:04:49;;;;;;;7.75;3.30;;;1.70;97.30;;;;;;5074090;28;20749;-73
2021/04/05 04:09:44;;;;;;;8.05;3.33;;;1.70;97.10;;;;;;5072838;28;20396;-75
2021/04/05 04:12:13;;;;;;;3.65;3.35;;;1.70;97.00;;;;;;5074213;28;20272;-75
2021/04/05 04:14:41;;;;;;;2.72;2.53;;;1.60;97.10;;;;;;5074439;28;20194;-73
2021/04/05 04:17:09;;;;;;;3.05;2.35;;;1.50;97.40;;;;;;5073695;28;20166;-73
2021/04/05 04:19:38;;;;;;;6.20;2.30;;;1.50;97.60;;;;;;5072353;28;20412;-75
2021/04/05 04:22:06;;;;;;;4.97;2.63;;;1.60;97.60;;;;;;5073718;28;20182;-72
2021/04/05 04:24:33;;;;;;;3.75;1.90;;;1.60;97.50;;;;;;5073919;28;20200;-73
2021/04/05 04:26:59;;;;;;;3.20;2.40;;;1.70;97.20;;;;;;5074093;28;20259;-72
2021/04/05 04:29:25;;;;;;;3.17;1.93;;;1.60;97.20;;;;;;5073860;28;20201;-72
2021/04/05 04:31:51;;;;;;;2.50;1.30;;;1.60;97.40;;;;;;5073969;28;20631;-71
2021/04/05 04:34:17;;;;;;;3.53;1.83;;;1.60;97.30;;;;;;5074005;28;20188;-71
2021/04/05 04:36:44;;;;;;;2.63;1.77;;;1.70;97.20;;;;;;5073804;28;20170;-71
2021/04/05 04:39:11;;;;;;;7.03;2.28;;;1.60;97.00;;;;;;5073795;28;20206;-70
2021/04/05 04:41:37;;;;;;;3.35;1.98;;;1.50;97.20;;;;;;5074184;28;20177;-70
2021/04/05 04:44:04;;;;;;;1.80;1.70;;;1.60;97.30;;;;;;5073819;28;20197;-71
2021/04/05 04:46:30;;;;;;;2.85;2.30;;;1.70;97.10;;;;;;5073538;28;20418;-71
2021/04/05 04:49:02;;;;;;;2.28;1.83;;;1.80;96.80;;;;;;5073846;28;20174;-70
2021/04/05 04:51:28;;;;;;;4.95;2.85;;;1.80;96.80;;;;;;5073776;28;20294;-70
2021/04/05 04:53:56;;;;;;;3.28;2.67;;;1.70;96.60;;;;;;5073551;28;20200;-69
2021/04/05 04:56:22;;;;;;;3.22;2.90;;;1.70;96.60;;;;;;5073517;28;20171;-71
2021/04/05 04:58:48;;;;;;;5.75;2.42;;;1.60;96.90;;;;;;5073554;28;20539;-71
2021/04/05 05:01:15;;;;;;;4.85;2.03;;;1.70;97.00;;;;;;5073466;28;20173;-69
2021/04/05 05:03:51;;;;;;;2.50;1.75;;;1.70;97.00;;;;;;5073347;28;20269;-70
2021/04/05 05:06:18;;;;;;;3.28;2.30;;;1.60;97.00;;;;;;5073432;28;20245;-71
2021/04/05 05:08:44;;;;;;;3.25;2.15;;;1.60;97.30;;;;;;5072352;28;20177;-71
2021/04/05 05:11:10;;;;;;;4.03;2.50;;;1.60;97.30;;;;;;5073978;28;20172;-71
2021/04/05 05:13:36;;;;;;;6.35;2.80;;;1.60;97.40;;;;;;5073473;28;20546;-69
2021/04/05 05:16:05;;;;;;;7.60;2.23;;;1.70;97.50;;;;;;5073418;28;20590;-71
2021/04/05 05:18:31;;;;;;;9.30;2.75;;;1.80;97.10;;;;;;5073362;28;20166;-71
2021/04/05 05:21:01;;;;;;;6.57;3.30;;;1.80;96.90;;;;;;5072317;28;20556;-71
2021/04/05 05:23:28;;;;;;;4.65;3.35;;;1.90;96.70;;;;;;5073183;28;20296;-71
2021/04/05 05:25:56;;;;;;;4.18;2.67;;;2.00;96.50;;;;;;5073317;28;20707;-71
2021/04/05 05:28:23;;;;;;;2.63;2.42;;;2.00;96.40;;;;;;5073359;28;20177;-70
2021/04/05 05:30:48;;;;;;;3.55;1.55;;;2.20;96.60;;;;;;5073038;28;20630;-71
2021/04/05 05:33:15;;;;;;;2.57;1.90;;;2.10;96.60;;;;;;5072852;28;20203;-71
2021/04/05 05:35:41;;;;;;;4.05;3.50;;;2.10;97.20;;;;;;5071831;28;20175;-71
2021/04/05 05:38:07;;;;;;;3.25;2.95;;;2.30;97.20;;;;;;5073212;28;20170;-71
2021/04/05 05:40:39;;;;;;;1.70;1.60;;;2.40;96.60;;;;;;5072808;28;20253;-71
2021/04/05 05:43:26;;;;;;;4.47;2.92;;;2.70;96.30;;;;;;5073115;28;20415;-71
2021/04/05 05:46:14;;;;;;;4.75;2.55;;;3.00;96.00;;;;;;5073045;28;20189;-71
2021/04/05 05:48:59;;;;;;;4.20;2.35;;;3.20;95.60;;;;;;5072927;28;20185;-70
2021/04/05 05:51:56;;;;;;;4.18;2.72;;;3.50;96.10;;;;;;5073107;28;20197;-70
2021/04/05 05:54:43;;;;;;;5.72;3.40;;;3.70;95.50;;;;;;5072729;28;20297;-71
2021/04/05 05:57:24;;;;;;;7.57;3.53;;;4.30;94.60;;;;;;5073023;28;20618;-71
2021/04/05 06:00:01;;;;;;;6.47;3.05;;;4.80;93.20;;;;;;5073026;28;20197;-71
2021/04/05 06:02:42;;;;;;;6.72;2.65;;;5.10;92.70;;;;;;5073185;28;20192;-71
2021/04/05 06:05:25;;;;;;;4.50;2.53;;;5.20;92.00;;;;;;5072690;28;20192;-71
2021/04/05 06:08:19;;;;;;;5.65;3.45;;;5.10;91.90;;;;;;5072725;28;20564;-71
2021/04/05 06:10:48;;;;;;;4.43;2.97;;;4.70;91.00;;;;;;5072566;28;20173;-71
2021/04/05 06:13:42;;;;;;;14.07;3.90;;;5.00;91.00;;;;;;5072581;28;20612;-71
2021/04/05 06:16:34;;;;;;;5.97;3.72;;;5.40;90.60;;;;;;5072952;28;20174;-71
2021/04/05 06:18:59;;;;;;;4.05;3.17;;;5.60;89.60;;;;;;5065602;28;20587;-71
2021/04/05 06:21:44;;;;;;;7.87;3.03;;;5.90;88.00;;;;;;5072575;28;20264;-70
2021/04/05 06:24:19;;;;;;;5.35;3.83;;;5.90;88.70;;;;;;5073241;28;20248;-71
2021/04/05 06:27:00;;;;;;;5.13;3.35;;;6.00;89.70;;;;;;5072867;28;20615;-71
2021/04/05 06:29:58;;;;;;;4.50;4.15;;;6.50;86.20;;;;;;5071756;28;20638;-71
2021/04/05 06:32:38;;;;;;;6.97;4.10;;;7.10;84.30;;;;;;5065134;28;20579;-73
2021/04/05 06:35:29;;;;;;;5.68;3.20;;;7.70;82.90;;;;;;5075089;28;20600;-67
2021/04/05 06:38:04;;;;;;;6.03;3.53;;;8.20;79.20;;;;;;5076428;28;20613;-67
2021/04/05 06:40:32;;;;;;;5.18;3.60;;;8.90;76.70;;;;;;5076547;28;20263;-67
2021/04/05 06:43:28;;;;;;;7.40;3.85;;;9.60;72.40;;;;;;5076411;28;20551;-67
2021/04/05 06:46:00;;;;;;;6.75;5.03;;;9.50;69.50;;;;;;5076218;28;20498;-68
2021/04/05 06:48:54;;;;;;;8.45;4.65;;;9.50;69.70;;;;;;5076297;28;20170;-67
2021/04/05 06:51:46;;;;;;;6.32;3.95;;;9.40;69.20;;;;;;5076459;28;20523;-68
2021/04/05 06:54:42;;;;;;;6.80;5.20;;;9.30;69.30;;;;;;5076165;28;20193;-68
2021/04/05 06:57:18;;;;;;;12.75;5.38;;;9.20;68.90;;;;;;5076247;28;20169;-68
2021/04/05 06:59:58;;;;;;;6.13;4.05;;;9.20;68.70;;;;;;5074916;28;20177;-67
2021/04/05 07:02:36;;;;;;;12.52;5.65;;;8.90;69.80;;;;;;5075668;28;20173;-68
2021/04/05 07:05:23;;;;;;;6.03;3.63;;;8.70;70.40;;;;;;5075094;28;20238;-68
2021/04/05 07:07:56;;;;;;;6.97;5.20;;;8.80;70.80;;;;;;5075506;28;20181;-68
2021/04/05 07:10:29;;;;;;;10.55;5.45;;;9.10;70.60;;;;;;5075334;28;20223;-68
2021/04/05 07:13:32;;;;;;;5.47;4.13;;;9.70;67.40;;;;;;5075467;28;20296;-68
2021/04/05 07:16:09;;;;;;;8.02;4.35;;;10.20;63.70;;;;;;5074528;28;20189;-68
2021/04/05 07:18:34;;;;;;;7.32;4.85;;;10.30;63.80;;;;;;5076069;28;20169;-68
2021/04/05 07:21:30;;;;;;;7.73;4.40;;;10.80;62.70;;;;;;5075015;28;20311;-68
2021/04/05 07:24:11;;;;;;;4.75;4.25;;;11.20;59.70;;;;;;5074501;28;20267;-68
2021/04/05 07:26:57;;;;;;;13.48;5.35;;;11.40;58.30;;;;;;5075917;28;20517;-68
2021/04/05 07:29:43;;;;;;;10.60;5.13;;;11.20;58.10;;;;;;5075054;28;20165;-68
2021/04/05 07:32:36;;;;;;;8.00;5.00;;;11.00;58.70;;;;;;5075117;28;20204;-68
2021/04/05 07:35:17;;;;;;;9.73;4.60;;;10.30;58.60;;;;;;5074065;28;20189;-67
2021/04/05 07:38:07;;;;;;;9.20;5.50;;;10.10;60.30;;;;;;5075057;28;20173;-68
2021/04/05 07:40:39;;;;;;;5.00;4.15;;;9.80;62.90;;;;;;5074875;28;20211;-68
2021/04/05 07:43:12;;;;;;;10.27;5.38;;;9.80;63.90;;;;;;5074871;28;20174;-68
2021/04/05 07:45:51;;;;;;;12.02;6.75;;;9.80;63.40;;;;;;5075093;28;20172;-68
2021/04/05 07:48:30;;;;;;;7.13;4.97;;;9.50;63.60;;;;;;5074584;28;20193;-68
2021/04/05 07:50:58;;;;;;;12.43;5.10;;;9.60;64.40;;;;;;5074714;28;20216;-68
2021/04/05 07:53:35;;;;;;;11.68;5.10;;;9.60;64.30;;;;;;5073688;28;20671;-68
2021/04/05 07:56:07;;;;;;;9.13;6.80;;;9.50;65.10;;;;;;5075091;28;20515;-69
2021/04/05 07:59:02;;;;;;;6.55;5.20;;;9.50;64.50;;;;;;5074823;28;20520;-68
2021/04/05 08:01:48;;;;;;;10.75;4.85;;;9.90;63.60;;;;;;5072628;28;20612;-69
2021/04/05 08:04:29;;;;;;;8.80;4.93;;;11.30;59.90;;;;;;5074544;28;20282;-69
2021/04/05 08:07:00;;;;;;;10.47;5.10;;;12.90;57.10;;;;;;5074439;28;20874;-69
2021/04/05 08:09:34;;;;;;;13.47;5.67;;;14.40;53.40;;;;;;5074391;28;20882;-69
2021/04/05 08:12:14;;;;;;;10.97;4.00;;;15.20;50.90;;;;;;5074489;28;20439;-68
2021/04/05 08:14:40;;;;;;;11.03;6.00;;;15.50;48.40;;;;;;5074181;28;20940;-68
2021/04/05 08:17:37;;;;;;;10.80;5.77;;;15.70;48.00;;;;;;5072945;28;20421;-68
2021/04/05 08:20:19;;;;;;;8.43;5.40;;;15.20;46.80;;;;;;5074101;28;20257;-68
2021/04/05 08:22:44;;;;;;;7.30;4.90;;;14.20;48.30;;;;;;5074047;28;20435;-68
2021/04/05 08:25:43;;;;;;;11.80;6.60;;;13.70;48.80;;;;;;5073258;28;20438;-68
2021/04/05 08:28:30;;;;;;;10.03;5.23;;;12.90;50.00;;;;;;5074322;28;20504;-68
2021/04/05 08:31:25;;;;;;;10.43;5.30;;;11.80;51.50;;;;;;5074367;28;20401;-68
2021/04/05 08:34:29;;;;;;;18.25;5.90;;;11.20;54.30;;;;;;5068900;28;20872;-68
2021/04/05 08:37:18;;;;;;;9.75;6.60;;;11.00;54.80;;;;;;5062208;28;20193;-68
2021/04/05 08:40:04;;;;;;;10.68;4.90;;;11.20;54.30;;;;;;5073807;28;20181;-68
2021/04/05 08:43:07;;;;;;;13.88;5.88;;;10.80;55.50;;;;;;5073940;28;20157;-69
2021/04/05 08:45:48;;;;;;;11.18;5.40;;;10.80;55.60;;;;;;5074329;28;20643;-69
2021/04/05 08:48:19;;;;;;;7.65;5.00;;;10.80;57.50;;;;;;5074383;28;20192;-69
2021/04/05 08:51:09;;;;;;;7.63;4.60;;;11.30;56.90;;;;;;5073634;28;20209;-69
2021/04/05 08:53:41;;;;;;;14.45;5.70;;;11.60;55.70;;;;;;5074160;28;20231;-69
2021/04/05 08:56:10;;;;;;;10.38;5.63;;;11.20;55.40;;;;;;5073472;28;20687;-69
2021/04/05 08:59:05;;;;;;;5.28;4.43;;;10.80;56.40;;;;;;5073655;28;20638;-69
2021/04/05 09:01:43;;;;;;;9.70;6.45;;;10.90;56.70;;;;;;5073834;28;20240;-68
2021/04/05 09:04:10;;;;;;;9.07;6.22;;;10.80;56.80;;;;;;5073508;28;20185;-69
2021/04/05 09:06:50;;;;;;;13.40;6.47;;;11.10;56.90;;;;;;5074185;28;20202;-69
2021/04/05 09:09:17;;;;;;;9.43;4.80;;;11.60;56.70;;;;;;5073778;28;20529;-69
2021/04/05 09:11:43;;;;;;;10.70;5.90;;;11.40;57.10;;;;;;5073518;28;20446;-69
2021/04/05 09:14:14;;;;;;;9.23;5.60;;;11.60;56.60;;;;;;5073724;28;20422;-69
2021/04/05 09:17:04;;;;;;;7.90;6.23;;;11.90;56.80;;;;;;5073784;28;20453;-69
2021/04/05 09:19:41;;;;;;;13.43;6.53;;;12.40;54.80;;;;;;5072355;28;20450;-68
2021/04/05 09:22:42;;;;;;;7.80;5.80;;;12.70;54.70;;;;;;5073504;28;20473;-68
2021/04/05 09:25:26;;;;;;;10.77;5.50;;;12.30;55.00;;;;;;5051513;28;20562;-67
2021/04/05 09:28:09;;;;;;;11.10;7.03;;;12.50;54.70;;;;;;5071095;28;20419;-67
2021/04/05 09:30:45;;;;;;;15.50;6.73;;;13.00;53.70;;;;;;5072023;28;20499;-67
2021/04/05 09:33:34;;;;;;;15.10;7.23;;;13.60;53.00;;;;;;5072940;28;20451;-67
2021/04/05 09:36:21;;;;;;;10.40;5.90;;;13.70;52.50;;;;;;5073817;28;20395;-67
2021/04/05 09:39:15;;;;;;;12.33;6.80;;;13.80;51.80;;;;;;5073061;28;20876;-68
2021/04/05 09:42:11;;;;;;;12.07;6.57;;;12.80;53.20;;;;;;5073620;28;20410;-67
2021/04/05 09:45:07;;;;;;;16.77;6.87;;;11.80;55.00;;;;;;5073154;28;20424;-67
2021/04/05 09:47:36;;;;;;;9.40;6.57;;;11.80;55.90;;;;;;5073356;28;20419;-67
2021/04/05 09:50:24;;;;;;;13.70;7.50;;;11.80;55.90;;;;;;5073327;28;20392;-67
2021/04/05 09:52:55;;;;;;;10.77;6.20;;;12.00;55.20;;;;;;5073088;28;20448;-67
2021/04/05 09:55:25;;;;;;;16.80;8.50;;;11.70;56.30;;;;;;5073160;28;20399;-67
2021/04/05 09:57:59;;;;;;;10.30;7.57;;;11.60;56.20;;;;;;5073595;28;20417;-67
2021/04/05 10:00:27;;;;;;;11.00;6.30;;;11.20;57.00;;;;;;5073335;28;20391;-67
2021/04/05 10:02:56;;;;;;;9.83;6.87;;;10.70;57.90;;;;;;5073377;28;20404;-67
2021/04/05 10:05:24;;;;;;;11.67;6.90;;;10.70;58.50;;;;;;5073281;28;20424;-67
2021/04/05 10:07:51;;;;;;;10.63;7.30;;;10.90;58.70;;;;;;5075477;28;20461;-67
2021/04/05 10:10:18;;;;;;;13.60;7.50;;;11.20;57.70;;;;;;5076891;28;20629;-67
2021/04/05 10:12:47;;;;;;;21.07;7.30;;;11.30;57.50;;;;;;5076911;28;20493;-67
2021/04/05 10:15:18;;;;;;;14.97;8.07;;;11.00;56.70;;;;;;5077087;28;20937;-67
2021/04/05 10:17:51;;;;;;;10.00;6.73;;;11.20;57.50;;;;;;5076941;28;20396;-67
2021/04/05 10:20:22;;;;;;;11.80;6.07;;;11.90;56.80;;;;;;5076515;28;20798;-67
2021/04/05 10:22:48;;;;;;;9.03;6.07;;;12.30;55.60;;;;;;5075829;28;20458;-67
2021/04/05 10:25:25;;;;;;;8.00;6.50;;;12.40;54.20;;;;;;5076273;28;20427;-67
2021/04/05 10:27:57;;;;;;;8.80;6.50;;;12.30;55.20;;;;;;5076159;28;20946;-67
2021/04/05 10:30:31;;;;;;;9.37;6.67;;;12.00;54.50;;;;;;5076013;28;20399;-67
2021/04/05 10:33:05;;;;;;;12.23;6.60;;;12.20;54.80;;;;;;5076317;28;20484;-67
2021/04/05 10:35:35;;;;;;;10.73;6.30;;;12.10;54.40;;;;;;5076649;28;20483;-67
2021/04/05 10:38:05;;;;;;;14.00;7.47;;;12.00;54.70;;;;;;5076319;28;20407;-67
2021/04/05 10:40:34;;;;;;;16.60;6.37;;;12.00;54.90;;;;;;5076023;28;20394;-67
2021/04/05 10:43:37;;;;;;;9.90;5.80;;;12.80;54.10;;;;;;5076652;28;20470;-67
2021/04/05 10:46:12;;;;;;;16.00;7.00;;;12.90;52.90;;;;;;5075045;28;20418;-67
2021/04/05 10:48:41;;;;;;;12.40;7.03;;;13.60;52.00;;;;;;5076147;28;20399;-67
2021/04/05 10:51:24;;;;;;;10.93;6.13;;;14.30;50.90;;;;;;5076062;28;20407;-68
2021/04/05 10:54:21;;;;;;;12.03;5.83;;;13.90;52.20;;;;;;5075937;28;20480;-67
2021/04/05 10:57:11;;;;;;;10.63;6.50;;;14.50;50.30;;;;;;5076051;28;20397;-67
2021/04/05 10:59:48;;;;;;;21.20;6.17;;;14.20;49.60;;;;;;5075909;28;20400;-67
2021/04/05 11:02:52;;;;;;;11.33;5.27;;;13.90;50.20;;;;;;5076033;28;20487;-67
2021/04/05 11:05:22;;;;;;;8.60;5.37;;;14.00;50.40;;;;;;5075263;28;20411;-67
2021/04/05 11:07:57;;;;;;;7.17;5.23;;;14.10;50.50;;;;;;5075566;28;20457;-67
2021/04/05 11:10:26;;;;;;;10.03;6.60;;;14.30;49.60;;;;;;5075442;28;20482;-67
2021/04/05 11:13:11;;;;;;;9.40;5.80;;;14.10;50.00;;;;;;5075374;28;21002;-67
2021/04/05 11:15:39;;;;;;;11.87;5.20;;;14.10;50.00;;;;;;5072310;28;20412;-67
2021/04/05 11:18:08;;;;;;;8.50;4.97;;;14.10;49.20;;;;;;5073924;28;20412;-67
2021/04/05 11:20:36;;;;;;;17.47;7.17;;;14.20;49.80;;;;;;5075209;28;20768;-67
2021/04/05 11:23:05;;;;;;;7.70;4.90;;;14.20;49.30;;;;;;5075288;28;20415;-67
2021/04/05 11:25:41;;;;;;;14.17;6.10;;;14.30;48.30;;;;;;5075375;28;20454;-67
2021/04/05 11:28:19;;;;;;;5.47;4.30;;;14.40;47.00;;;;;;5075538;28;20387;-67
2021/04/05 11:30:48;;;;;;;5.67;4.00;;;14.40;47.70;;;;;;5073727;28;20403;-67
2021/04/05 11:33:23;;;;;;;10.83;4.33;;;13.70;46.60;;;;;;5075213;28;20455;-67
2021/04/05 11:35:52;;;;;;;5.30;4.00;;;13.50;47.30;;;;;;5075258;28;20385;-67
2021/04/05 11:38:20;;;;;;;5.10;3.70;;;13.50;46.40;;;;;;5075065;28;20426;-67
2021/04/05 11:40:56;;;;;;;11.83;4.50;;;13.50;45.90;;;;;;5074815;28;20397;-67
2021/04/05 11:43:28;;;;;;;11.87;4.50;;;13.70;46.80;;;;;;5075129;28;20765;-67
2021/04/05 11:45:59;;;;;;;6.33;4.70;;;13.80;45.40;;;;;;5075149;28;20457;-67
2021/04/05 11:48:27;;;;;;;12.33;5.00;;;13.70;45.60;;;;;;5075070;28;20398;-67
2021/04/05 11:50:53;;;;;;;11.40;6.80;;;13.40;47.50;;;;;;5075144;28;20444;-67
2021/04/05 11:53:40;;;;;;;7.33;4.13;;;13.40;47.40;;;;;;5074863;28;20464;-67
2021/04/05 11:56:11;;;;;;;8.27;6.07;;;13.30;47.90;;;;;;5074704;28;20392;-67
2021/04/05 11:58:56;;;;;;;5.37;3.60;;;13.60;48.10;;;;;;5074878;28;20765;-67
2021/04/05 12:01:25;;;;;;;6.40;4.73;;;13.80;47.40;;;;;;5074850;28;20400;-67
2021/04/05 12:04:07;;;;;;;11.23;4.93;;;13.90;46.60;;;;;;5074639;28;20428;-67
2021/04/05 12:06:38;;;;;;;9.07;5.50;;;13.70;46.90;;;;;;5074637;28;20415;-67
2021/04/05 12:09:15;;;;;;;8.10;4.00;;;13.20;47.40;;;;;;5074380;28;20407;-67
2021/04/05 12:11:46;;;;;;;9.50;4.60;;;13.10;47.20;;;;;;5074413;28;20773;-67
2021/04/05 12:14:21;;;;;;;9.27;4.27;;;13.30;47.10;;;;;;5073549;28;20428;-67
2021/04/05 12:16:50;;;;;;;4.83;3.73;;;12.70;46.80;;;;;;5072978;28;20535;-67
2021/04/05 12:19:30;;;;;;;4.37;3.17;;;12.80;46.60;;;;;;5073389;28;20706;-67
2021/04/05 12:21:57;;;;;;;9.43;3.80;;;13.20;44.40;;;;;;5074016;28;20924;-68
2021/04/05 12:24:31;;;;;;;2.57;2.37;;;13.50;43.80;;;;;;5073315;28;20431;-67
2021/04/05 12:27:00;;;;;;;4.47;2.40;;;14.00;43.70;;;;;;5074316;28;20904;-67
2021/04/05 12:29:27;;;;;;;6.37;4.17;;;14.00;42.80;;;;;;5073023;28;20408;-67
2021/04/05 12:31:55;;;;;;;5.40;3.57;;;13.70;42.40;;;;;;5074133;28;20826;-67
2021/04/05 12:34:35;;;;;;;10.30;3.93;;;13.50;43.10;;;;;;5074000;28;20960;-67
2021/04/05 12:37:10;;;;;;;6.20;2.90;;;14.00;43.30;;;;;;5074206;28;20746;-67
2021/04/05 12:39:36;;;;;;;6.53;4.17;;;14.20;41.80;;;;;;5073854;28;20893;-67
2021/04/05 12:42:08;;;;;;;8.20;2.83;;;14.10;41.50;;;;;;5073830;28;20448;-68
2021/04/05 12:44:37;;;;;;;13.00;4.40;;;13.90;42.90;;;;;;5073797;28;20428;-67
2021/04/05 12:47:06;;;;;;;8.40;3.17;;;13.70;42.80;;;;;;5073850;28;20457;-67
2021/04/05 12:49:46;;;;;;;4.00;3.47;;;13.70;43.40;;;;;;5073669;28;20905;-67
2021/04/05 12:52:20;;;;;;;5.73;3.40;;;13.70;43.10;;;;;;5073872;28;20862;-67
2021/04/05 12:54:49;;;;;;;6.73;3.80;;;13.70;43.30;;;;;;5073638;28;20416;-67
2021/04/05 12:57:23;;;;;;;7.87;3.43;;;12.80;44.00;;;;;;5073566;28;20396;-67
2021/04/05 12:59:49;;;;;;;8.90;3.60;;;12.50;44.40;;;;;;5073660;28;20877;-67
2021/04/05 13:02:18;;;;;;;7.43;3.77;;;12.50;44.50;;;;;;5072712;28;20416;-67
2021/04/05 13:05:18;;;;;;;5.90;2.80;;;12.70;43.20;;;;;;5073778;28;20195;-67
2021/04/05 13:08:04;;;;;;;8.47;3.13;;;13.00;42.90;;;;;;5073602;28;20401;-68
2021/04/05 13:10:40;;;;;;;3.80;2.67;;;13.30;42.90;;;;;;5073353;28;20411;-69
2021/04/05 13:13:12;;;;;;;4.17;3.30;;;13.40;42.20;;;;;;5073380;28;20457;-69
2021/04/05 13:15:44;;;;;;;6.20;3.67;;;13.40;42.70;;;;;;5073771;28;20389;-68
2021/04/05 13:18:15;;;;;;;8.13;3.37;;;13.20;42.50;;;;;;5073812;28;20411;-68
2021/04/05 13:20:47;;;;;;;10.33;3.70;;;13.60;42.70;;;;;;5073733;28;20433;-68
2021/04/05 13:23:20;;;;;;;6.93;2.87;;;13.50;41.80;;;;;;5073501;28;20466;-68
2021/04/05 13:25:56;;;;;;;7.43;3.20;;;13.60;41.70;;;;;;5073700;28;20404;-67
2021/04/05 13:28:23;;;;;;;3.27;3.07;;;13.50;41.80;;;;;;5073394;28;20411;-68